createdAt,value
2016-02-28T00:00:51.364Z,1004.35
2016-02-28T00:01:51.335Z,1004.36
2016-02-28T00:02:51.291Z,1004.37
2016-02-28T00:03:51.263Z,1004.33
2016-02-28T00:04:51.234Z,1004.36
2016-02-28T00:05:51.205Z,1004.35
2016-02-28T00:06:51.193Z,1004.34
2016-02-28T00:07:51.163Z,1004.36
2016-02-28T00:08:51.135Z,1004.38
2016-02-28T00:09:51.123Z,1004.35
2016-02-28T00:10:51.093Z,1004.34
2016-02-28T00:11:51.066Z,1004.38
2016-02-28T00:12:51.037Z,1004.38
2016-02-28T00:13:51.009Z,1004.38
2016-02-28T00:14:50.979Z,1004.37
2016-02-28T00:15:50.967Z,1004.43
2016-02-28T00:16:50.938Z,1004.34
2016-02-28T00:17:50.909Z,1004.36
2016-02-28T00:18:50.881Z,1004.39
2016-02-28T00:19:50.859Z,1004.39
2016-02-28T00:20:50.845Z,1004.38
2016-02-28T00:21:50.817Z,1004.39
2016-02-28T00:22:50.787Z,1004.39
2016-02-28T00:23:50.759Z,1004.37
2016-02-28T00:24:50.732Z,1004.33
2016-02-28T00:25:50.703Z,1004.34
2016-02-28T00:26:50.690Z,1004.31
2016-02-28T00:27:50.661Z,1004.35
2016-02-28T00:28:50.633Z,1004.34
2016-02-28T00:29:50.603Z,1004.34
2016-02-28T00:30:50.591Z,1004.36
2016-02-28T00:31:50.562Z,1004.36
2016-02-28T00:32:50.534Z,1004.4
2016-02-28T00:33:50.506Z,1004.34
2016-02-28T00:34:50.477Z,1004.41
2016-02-28T00:35:50.448Z,1004.4
2016-02-28T00:36:50.420Z,1004.41
2016-02-28T00:37:50.407Z,1004.37
2016-02-28T00:38:50.378Z,1004.38
2016-02-28T00:39:50.350Z,1004.36
2016-02-28T00:40:50.336Z,1004.39
2016-02-28T00:41:50.308Z,1004.39
2016-02-28T00:42:50.279Z,1004.38
2016-02-28T00:43:50.251Z,1004.4
2016-02-28T00:44:50.222Z,1004.41
2016-02-28T00:45:50.194Z,1004.39
2016-02-28T00:46:50.182Z,1004.34
2016-02-28T00:47:50.152Z,1004.39
2016-02-28T00:48:50.123Z,1004.41
2016-02-28T00:49:50.095Z,1004.42
2016-02-28T00:50:50.082Z,1004.43
2016-02-28T00:51:50.054Z,1004.44
2016-02-28T00:52:50.026Z,1004.44
2016-02-28T00:53:49.996Z,1004.44
2016-02-28T00:54:49.984Z,1004.46
2016-02-28T00:55:49.986Z,1004.53
2016-02-28T00:56:49.926Z,1004.5
2016-02-28T00:57:49.898Z,1004.55
2016-02-28T00:58:49.870Z,1004.55
2016-02-28T00:59:49.856Z,1004.57
2016-02-28T01:00:49.828Z,1004.57
2016-02-28T01:01:49.800Z,1004.6
2016-02-28T01:02:49.771Z,1004.56
2016-02-28T01:03:49.758Z,1004.59
2016-02-28T01:04:49.714Z,1004.61
2016-02-28T01:05:49.701Z,1004.62
2016-02-28T01:06:49.672Z,1004.62
2016-02-28T01:07:49.644Z,1004.62
2016-02-28T01:08:49.615Z,1004.62
2016-02-28T01:09:49.586Z,1004.66
2016-02-28T01:10:49.574Z,1004.68
2016-02-28T01:11:49.561Z,1004.65
2016-02-28T01:12:49.517Z,1004.7
2016-02-28T01:13:49.488Z,1004.71
2016-02-28T01:14:49.460Z,1004.68
2016-02-28T01:15:49.446Z,1004.75
2016-02-28T01:16:49.418Z,1004.8
2016-02-28T01:17:49.405Z,1004.8
2016-02-28T01:18:49.361Z,1004.78
2016-02-28T01:19:49.348Z,1004.79
2016-02-28T01:20:49.319Z,1004.78
2016-02-28T01:21:49.290Z,1004.81
2016-02-28T01:22:49.262Z,1004.83
2016-02-28T01:23:49.234Z,1004.88
2016-02-28T01:24:49.221Z,1004.82
2016-02-28T01:25:49.192Z,1004.87
2016-02-28T01:26:49.164Z,1004.89
2016-02-28T01:27:49.134Z,1004.91
2016-02-28T01:28:49.107Z,1004.91
2016-02-28T01:29:49.078Z,1004.91
2016-02-28T01:30:49.065Z,1004.96
2016-02-28T01:31:49.037Z,1004.93
2016-02-28T01:32:49.008Z,1004.93
2016-02-28T01:33:48.979Z,1004.93
2016-02-28T01:34:48.966Z,1004.94
2016-02-28T01:35:48.938Z,1004.94
2016-02-28T01:36:48.909Z,1004.92
2016-02-28T01:37:48.881Z,1004.94
2016-02-28T01:38:48.852Z,1004.94
2016-02-28T01:39:48.824Z,1004.99
2016-02-28T01:40:48.811Z,1004.93
2016-02-28T01:41:48.860Z,1004.95
2016-02-28T01:42:48.750Z,1004.96
2016-02-28T01:43:48.722Z,1004.97
2016-02-28T01:44:48.694Z,1004.98
2016-02-28T01:45:48.680Z,1004.98
2016-02-28T01:46:48.652Z,1004.98
2016-02-28T01:47:48.624Z,1004.97
2016-02-28T01:48:48.595Z,1004.97
2016-02-28T01:49:48.566Z,1004.99
2016-02-28T01:50:48.554Z,1005.02
2016-02-28T01:51:48.525Z,1005.02
2016-02-28T01:52:48.496Z,1005.05
2016-02-28T01:53:48.468Z,1005.04
2016-02-28T01:54:48.487Z,1005.04
2016-02-28T01:55:48.411Z,1005.04
2016-02-28T01:56:48.398Z,1005.06
2016-02-28T01:57:48.370Z,1005.06
2016-02-28T01:58:48.340Z,1005.07
2016-02-28T01:59:48.328Z,1005.05
2016-02-28T02:00:48.315Z,1005.08
2016-02-28T02:01:48.270Z,1005.07
2016-02-28T02:02:48.242Z,1005.13
2016-02-28T02:03:48.245Z,1005.15
2016-02-28T02:04:48.185Z,1005.07
2016-02-28T02:05:48.172Z,1005.1
2016-02-28T02:06:48.144Z,1005.09
2016-02-28T02:07:48.114Z,1005.05
2016-02-28T02:08:48.086Z,1005.02
2016-02-28T02:09:48.058Z,1005.01
2016-02-28T02:10:48.030Z,1005.02
2016-02-28T02:11:48.016Z,1005
2016-02-28T02:12:47.988Z,1005.02
2016-02-28T02:13:47.959Z,1005.05
2016-02-28T02:14:47.930Z,1005.03
2016-02-28T02:15:47.902Z,1005.02
2016-02-28T02:16:47.889Z,1005.03
2016-02-28T02:17:47.861Z,1005.03
2016-02-28T02:18:47.832Z,1005.07
2016-02-28T02:19:47.804Z,1005.06
2016-02-28T02:20:47.775Z,1005.06
2016-02-28T02:21:47.763Z,1005.08
2016-02-28T02:22:47.733Z,1005.1
2016-02-28T02:23:47.705Z,1005.12
2016-02-28T02:24:47.676Z,1005.08
2016-02-28T02:25:47.648Z,1005.07
2016-02-28T02:26:47.635Z,1005.1
2016-02-28T02:27:47.637Z,1005.11
2016-02-28T02:28:47.578Z,1005.14
2016-02-28T02:29:47.581Z,1005.18
2016-02-28T02:30:47.521Z,1005.19
2016-02-28T02:31:47.507Z,1005.2
2016-02-28T02:32:47.479Z,1005.21
2016-02-28T02:33:47.466Z,1005.21
2016-02-28T02:34:47.422Z,1005.2
2016-02-28T02:35:47.393Z,1005.22
2016-02-28T02:36:47.381Z,1005.22
2016-02-28T02:37:47.352Z,1005.23
2016-02-28T02:38:47.417Z,1005.22
2016-02-28T02:39:47.294Z,1005.21
2016-02-28T02:40:47.266Z,1005.23
2016-02-28T02:41:47.253Z,1005.25
2016-02-28T02:42:47.225Z,1005.24
2016-02-28T02:43:47.197Z,1005.27
2016-02-28T02:44:47.183Z,1005.29
2016-02-28T02:45:47.155Z,1005.27
2016-02-28T02:46:47.126Z,1005.31
2016-02-28T02:47:47.097Z,1005.28
2016-02-28T02:48:47.069Z,1005.31
2016-02-28T02:49:47.040Z,1005.29
2016-02-28T02:50:47.012Z,1005.3
2016-02-28T02:51:46.983Z,1005.31
2016-02-28T02:52:46.970Z,1005.29
2016-02-28T02:53:46.941Z,1005.27
2016-02-28T02:54:46.913Z,1005.28
2016-02-28T02:55:46.885Z,1005.29
2016-02-28T02:56:46.856Z,1005.24
2016-02-28T02:57:46.843Z,1005.28
2016-02-28T02:58:46.815Z,1005.25
2016-02-28T02:59:46.786Z,1005.24
2016-02-28T03:00:46.757Z,1005.24
2016-02-28T03:01:46.760Z,1005.26
2016-02-28T03:02:46.715Z,1005.23
2016-02-28T03:03:46.687Z,1005.2
2016-02-28T03:04:46.659Z,1005.2
2016-02-28T03:05:46.630Z,1005.23
2016-02-28T03:06:46.601Z,1005.25
2016-02-28T03:07:46.573Z,1005.19
2016-02-28T03:08:46.561Z,1005.21
2016-02-28T03:09:46.532Z,1005.19
2016-02-28T03:10:46.519Z,1005.21
2016-02-28T03:11:46.475Z,1005.24
2016-02-28T03:12:46.446Z,1005.25
2016-02-28T03:13:46.417Z,1005.26
2016-02-28T03:14:46.405Z,1005.28
2016-02-28T03:15:46.375Z,1005.26
2016-02-28T03:16:46.348Z,1005.27
2016-02-28T03:17:46.319Z,1005.26
2016-02-28T03:18:46.291Z,1005.24
2016-02-28T03:19:46.277Z,1005.25
2016-02-28T03:20:46.249Z,1005.26
2016-02-28T03:21:46.221Z,1005.26
2016-02-28T03:22:46.191Z,1005.27
2016-02-28T03:23:46.163Z,1005.28
2016-02-28T03:24:46.150Z,1005.3
2016-02-28T03:25:46.121Z,1005.33
2016-02-28T03:26:46.093Z,1005.34
2016-02-28T03:27:46.080Z,1005.34
2016-02-28T03:28:46.036Z,1005.34
2016-02-28T03:29:46.023Z,1005.36
2016-02-28T03:30:45.995Z,1005.4
2016-02-28T03:31:45.965Z,1005.4
2016-02-28T03:32:45.937Z,1005.37
2016-02-28T03:33:45.909Z,1005.39
2016-02-28T03:34:45.880Z,1005.35
2016-02-28T03:35:46.148Z,1005.39
2016-02-28T03:36:45.839Z,1005.41
2016-02-28T03:37:45.809Z,1005.37
2016-02-28T03:38:45.781Z,1005.41
2016-02-28T03:39:45.753Z,1005.38
2016-02-28T03:40:45.739Z,1005.36
2016-02-28T03:41:45.711Z,1005.39
2016-02-28T03:42:45.683Z,1005.41
2016-02-28T03:43:45.655Z,1005.38
2016-02-28T03:44:45.625Z,1005.39
2016-02-28T03:45:45.598Z,1005.4
2016-02-28T03:46:45.583Z,1005.39
2016-02-28T03:47:45.556Z,1005.42
2016-02-28T03:48:45.528Z,1005.42
2016-02-28T03:49:45.499Z,1005.42
2016-02-28T03:50:45.470Z,1005.42
2016-02-28T03:51:45.458Z,1005.46
2016-02-28T03:52:45.429Z,1005.48
2016-02-28T03:53:45.400Z,1005.52
2016-02-28T03:54:45.372Z,1005.51
2016-02-28T03:55:45.343Z,1005.55
2016-02-28T03:56:45.315Z,1005.58
2016-02-28T03:57:45.301Z,1005.6
2016-02-28T03:58:45.273Z,1005.59
2016-02-28T03:59:45.243Z,1005.59
2016-02-28T04:00:45.215Z,1005.61
2016-02-28T04:01:45.187Z,1005.61
2016-02-28T04:02:45.174Z,1005.64
2016-02-28T04:03:45.145Z,1005.64
2016-02-28T04:04:45.123Z,1005.62
2016-02-28T04:05:45.093Z,1005.64
2016-02-28T04:06:45.065Z,1005.61
2016-02-28T04:07:45.037Z,1005.6
2016-02-28T04:08:45.024Z,1005.63
2016-02-28T04:09:44.994Z,1005.59
2016-02-28T04:10:44.966Z,1005.61
2016-02-28T04:11:44.938Z,1005.6
2016-02-28T04:12:44.909Z,1005.62
2016-02-28T04:13:44.881Z,1005.6
2016-02-28T04:14:44.853Z,1005.62
2016-02-28T04:15:44.839Z,1005.59
2016-02-28T04:16:44.811Z,1005.59
2016-02-28T04:17:44.783Z,1005.62
2016-02-28T04:18:44.753Z,1005.62
2016-02-28T04:19:44.724Z,1005.61
2016-02-28T04:20:44.713Z,1005.62
2016-02-28T04:21:44.683Z,1005.66
2016-02-28T04:22:44.655Z,1005.64
2016-02-28T04:23:44.627Z,1005.62
2016-02-28T04:24:44.598Z,1005.65
2016-02-28T04:25:44.601Z,1005.65
2016-02-28T04:26:44.556Z,1005.63
2016-02-28T04:27:44.527Z,1005.65
2016-02-28T04:28:44.499Z,1005.68
2016-02-28T04:29:44.471Z,1005.68
2016-02-28T04:30:44.442Z,1005.72
2016-02-28T04:31:44.413Z,1005.75
2016-02-28T04:32:44.651Z,1005.74
2016-02-28T04:33:44.372Z,1005.75
2016-02-28T04:34:44.343Z,1005.76
2016-02-28T04:35:44.315Z,1005.77
2016-02-28T04:36:44.286Z,1005.8
2016-02-28T04:37:44.273Z,1005.81
2016-02-28T04:38:44.245Z,1005.83
2016-02-28T04:39:44.216Z,1005.89
2016-02-28T04:40:44.187Z,1005.86
2016-02-28T04:41:44.159Z,1005.9
2016-02-28T04:42:44.147Z,1005.9
2016-02-28T04:43:44.117Z,1005.9
2016-02-28T04:44:44.105Z,1005.95
2016-02-28T04:45:44.076Z,1005.92
2016-02-28T04:46:44.032Z,1005.9
2016-02-28T04:47:44.003Z,1005.92
2016-02-28T04:48:43.975Z,1005.87
2016-02-28T04:49:43.961Z,1005.88
2016-02-28T04:50:43.933Z,1005.9
2016-02-28T04:51:43.905Z,1005.91
2016-02-28T04:52:43.876Z,1005.95
2016-02-28T04:53:43.863Z,1005.9
2016-02-28T04:54:43.835Z,1005.87
2016-02-28T04:55:43.807Z,1005.94
2016-02-28T04:56:43.777Z,1005.95
2016-02-28T04:57:43.749Z,1006.01
2016-02-28T04:58:43.721Z,1006.05
2016-02-28T04:59:43.707Z,1006.05
2016-02-28T05:00:43.679Z,1006.05
2016-02-28T05:01:43.650Z,1006.08
2016-02-28T05:02:43.622Z,1006.09
2016-02-28T05:03:43.593Z,1006.09
2016-02-28T05:04:43.565Z,1006.07
2016-02-28T05:05:43.537Z,1006.11
2016-02-28T05:06:43.523Z,1006.12
2016-02-28T05:07:43.495Z,1006.1
2016-02-28T05:08:43.467Z,1006.1
2016-02-28T05:09:43.437Z,1006.14
2016-02-28T05:10:43.409Z,1006.15
2016-02-28T05:11:43.396Z,1006.14
2016-02-28T05:12:43.368Z,1006.15
2016-02-28T05:13:43.339Z,1006.18
2016-02-28T05:14:43.310Z,1006.15
2016-02-28T05:15:43.282Z,1006.15
2016-02-28T05:16:43.253Z,1006.15
2016-02-28T05:17:43.241Z,1006.15
2016-02-28T05:18:43.211Z,1006.19
2016-02-28T05:19:43.183Z,1006.16
2016-02-28T05:20:43.155Z,1006.17
2016-02-28T05:21:43.127Z,1006.19
2016-02-28T05:22:43.097Z,1006.23
2016-02-28T05:23:43.085Z,1006.19
2016-02-28T05:24:43.056Z,1006.22
2016-02-28T05:25:43.027Z,1006.18
2016-02-28T05:26:43.015Z,1006.21
2016-02-28T05:27:42.970Z,1006.2
2016-02-28T05:28:42.942Z,1006.17
2016-02-28T05:29:42.929Z,1006.22
2016-02-28T05:30:42.901Z,1006.24
2016-02-28T05:31:42.871Z,1006.24
2016-02-28T05:32:42.843Z,1006.26
2016-02-28T05:33:42.815Z,1006.3
2016-02-28T05:34:42.786Z,1006.31
2016-02-28T05:35:42.773Z,1006.3
2016-02-28T05:36:42.760Z,1006.31
2016-02-28T05:37:42.716Z,1006.39
2016-02-28T05:38:42.718Z,1006.34
2016-02-28T05:39:42.659Z,1006.34
2016-02-28T05:40:42.646Z,1006.36
2016-02-28T05:41:42.618Z,1006.35
2016-02-28T05:42:42.589Z,1006.36
2016-02-28T05:43:42.561Z,1006.38
2016-02-28T05:44:42.531Z,1006.46
2016-02-28T05:45:42.519Z,1006.45
2016-02-28T05:46:42.490Z,1006.46
2016-02-28T05:47:42.461Z,1006.46
2016-02-28T05:48:42.433Z,1006.47
2016-02-28T05:49:42.405Z,1006.47
2016-02-28T05:50:42.376Z,1006.47
2016-02-28T05:51:42.363Z,1006.48
2016-02-28T05:52:42.335Z,1006.47
2016-02-28T05:53:42.306Z,1006.49
2016-02-28T05:54:42.277Z,1006.47
2016-02-28T05:55:42.249Z,1006.52
2016-02-28T05:56:42.221Z,1006.54
2016-02-28T05:57:42.191Z,1006.49
2016-02-28T05:58:42.179Z,1006.49
2016-02-28T05:59:42.150Z,1006.47
2016-02-28T06:00:42.138Z,1006.49
2016-02-28T06:01:42.093Z,1006.5
2016-02-28T06:02:42.065Z,1006.49
2016-02-28T06:03:42.067Z,1006.49
2016-02-28T06:04:42.023Z,1006.47
2016-02-28T06:05:41.995Z,1006.52
2016-02-28T06:06:41.965Z,1006.53
2016-02-28T06:07:41.937Z,1006.53
2016-02-28T06:08:41.909Z,1006.53
2016-02-28T06:09:41.896Z,1006.5
2016-02-28T06:10:41.867Z,1006.55
2016-02-28T06:11:41.839Z,1006.51
2016-02-28T06:12:41.810Z,1006.51
2016-02-28T06:13:41.781Z,1006.53
2016-02-28T06:14:41.753Z,1006.54
2016-02-28T06:15:41.739Z,1006.57
2016-02-28T06:16:41.712Z,1006.56
2016-02-28T06:17:41.698Z,1006.52
2016-02-28T06:18:41.655Z,1006.53
2016-02-28T06:19:41.642Z,1006.52
2016-02-28T06:20:41.613Z,1006.54
2016-02-28T06:21:41.584Z,1006.52
2016-02-28T06:22:41.555Z,1006.54
2016-02-28T06:23:41.527Z,1006.52
2016-02-28T06:24:41.499Z,1006.48
2016-02-28T06:25:41.641Z,1006.53
2016-02-28T06:26:41.457Z,1006.52
2016-02-28T06:27:41.429Z,1006.53
2016-02-28T06:28:41.400Z,1006.51
2016-02-28T06:29:41.371Z,1006.53
2016-02-28T06:30:41.343Z,1006.54
2016-02-28T06:31:41.315Z,1006.55
2016-02-28T06:32:41.286Z,1006.55
2016-02-28T06:33:41.273Z,1006.57
2016-02-28T06:34:41.244Z,1006.58
2016-02-28T06:35:41.232Z,1006.58
2016-02-28T06:36:41.204Z,1006.56
2016-02-28T06:37:41.159Z,1006.5
2016-02-28T06:38:41.130Z,1006.56
2016-02-28T06:39:41.117Z,1006.56
2016-02-28T06:40:41.089Z,1006.57
2016-02-28T06:41:41.060Z,1006.58
2016-02-28T06:42:41.031Z,1006.54
2016-02-28T06:43:41.003Z,1006.59
2016-02-28T06:44:40.975Z,1006.53
2016-02-28T06:45:40.962Z,1006.57
2016-02-28T06:46:40.933Z,1006.6
2016-02-28T06:47:40.904Z,1006.61
2016-02-28T06:48:40.875Z,1006.59
2016-02-28T06:49:40.847Z,1006.57
2016-02-28T06:50:40.819Z,1006.59
2016-02-28T06:51:40.805Z,1006.63
2016-02-28T06:52:40.778Z,1006.63
2016-02-28T06:53:40.749Z,1006.63
2016-02-28T06:54:40.720Z,1006.69
2016-02-28T06:55:40.691Z,1006.72
2016-02-28T06:56:40.678Z,1006.69
2016-02-28T06:57:40.650Z,1006.76
2016-02-28T06:58:40.622Z,1006.79
2016-02-28T06:59:40.593Z,1006.73
2016-02-28T07:00:40.564Z,1006.76
2016-02-28T07:01:40.536Z,1006.78
2016-02-28T07:02:40.524Z,1006.83
2016-02-28T07:03:40.494Z,1006.86
2016-02-28T07:04:40.466Z,1006.87
2016-02-28T07:05:40.438Z,1006.89
2016-02-28T07:06:40.409Z,1006.93
2016-02-28T07:07:40.412Z,1006.93
2016-02-28T07:08:40.367Z,1006.95
2016-02-28T07:09:40.338Z,1006.95
2016-02-28T07:10:40.326Z,1007
2016-02-28T07:11:40.281Z,1007.01
2016-02-28T07:12:40.268Z,1007.08
2016-02-28T07:13:40.240Z,1007.08
2016-02-28T07:14:40.212Z,1007.12
2016-02-28T07:15:40.198Z,1007.17
2016-02-28T07:16:40.153Z,1007.2
2016-02-28T07:17:40.125Z,1007.24
2016-02-28T07:18:40.097Z,1007.31
2016-02-28T07:19:40.083Z,1007.34
2016-02-28T07:20:40.055Z,1007.36
2016-02-28T07:21:40.027Z,1007.35
2016-02-28T07:22:39.998Z,1007.4
2016-02-28T07:23:39.970Z,1007.41
2016-02-28T07:24:39.941Z,1007.42
2016-02-28T07:25:39.928Z,1007.42
2016-02-28T07:26:39.900Z,1007.45
2016-02-28T07:27:39.887Z,1007.45
2016-02-28T07:28:39.858Z,1007.44
2016-02-28T07:29:39.814Z,1007.47
2016-02-28T07:30:39.801Z,1007.46
2016-02-28T07:31:39.772Z,1007.46
2016-02-28T07:32:39.744Z,1007.48
2016-02-28T07:33:39.715Z,1007.49
2016-02-28T07:34:39.687Z,1007.52
2016-02-28T07:35:39.658Z,1007.55
2016-02-28T07:36:39.646Z,1007.48
2016-02-28T07:37:39.617Z,1007.55
2016-02-28T07:38:39.588Z,1007.56
2016-02-28T07:39:39.560Z,1007.57
2016-02-28T07:40:39.531Z,1007.58
2016-02-28T07:41:39.518Z,1007.64
2016-02-28T07:42:39.489Z,1007.64
2016-02-28T07:43:39.462Z,1007.68
2016-02-28T07:44:39.449Z,1007.66
2016-02-28T07:45:39.404Z,1007.69
2016-02-28T07:46:39.391Z,1007.72
2016-02-28T07:47:39.363Z,1007.74
2016-02-28T07:48:39.325Z,1007.76
2016-02-28T07:49:39.299Z,1007.72
2016-02-28T07:50:39.244Z,1007.73
2016-02-28T07:51:39.203Z,1007.73
2016-02-28T07:52:39.178Z,1007.73
2016-02-28T07:53:39.143Z,1007.76
2016-02-28T07:54:39.110Z,1007.74
2016-02-28T07:55:39.079Z,1007.79
2016-02-28T07:56:39.046Z,1007.77
2016-02-28T07:57:39.012Z,1007.78
2016-02-28T07:58:38.998Z,1007.75
2016-02-28T07:59:38.968Z,1007.76
2016-02-28T08:00:38.938Z,1007.77
2016-02-28T08:01:38.924Z,1007.8
2016-02-28T08:02:38.878Z,1007.79
2016-02-28T08:03:38.864Z,1007.81
2016-02-28T08:04:38.835Z,1007.87
2016-02-28T08:05:38.806Z,1007.88
2016-02-28T08:06:38.776Z,1007.94
2016-02-28T08:07:38.747Z,1007.93
2016-02-28T08:08:38.736Z,1007.96
2016-02-28T08:09:38.706Z,1008.01
2016-02-28T08:10:38.677Z,1007.98
2016-02-28T08:11:38.663Z,1008.01
2016-02-28T08:12:38.620Z,1007.99
2016-02-28T08:13:38.590Z,1008.02
2016-02-28T08:14:38.578Z,1008.03
2016-02-28T08:15:38.549Z,1008.02
2016-02-28T08:16:38.520Z,1008.01
2016-02-28T08:17:38.492Z,1007.99
2016-02-28T08:18:38.728Z,1007.99
2016-02-28T08:19:38.450Z,1008.04
2016-02-28T08:20:38.421Z,1008.06
2016-02-28T08:21:38.394Z,1008.04
2016-02-28T08:22:38.365Z,1008.06
2016-02-28T08:23:38.336Z,1008.03
2016-02-28T08:24:38.323Z,1008.03
2016-02-28T08:25:38.294Z,1008.1
2016-02-28T08:26:38.266Z,1008.11
2016-02-28T08:27:38.237Z,1008.09
2016-02-28T08:28:38.225Z,1008.11
2016-02-28T08:29:38.180Z,1008.15
2016-02-28T08:30:38.168Z,1008.18
2016-02-28T08:31:38.138Z,1008.22
2016-02-28T08:32:38.110Z,1008.23
2016-02-28T08:33:38.081Z,1008.29
2016-02-28T08:34:38.069Z,1008.31
2016-02-28T08:35:38.041Z,1008.3
2016-02-28T08:36:38.012Z,1008.32
2016-02-28T08:37:37.983Z,1008.28
2016-02-28T08:38:37.954Z,1008.27
2016-02-28T08:39:37.926Z,1008.27
2016-02-28T08:40:37.912Z,1008.3
2016-02-28T08:41:37.884Z,1008.26
2016-02-28T08:42:37.856Z,1008.28
2016-02-28T08:43:37.828Z,1008.34
2016-02-28T08:44:37.798Z,1008.33
2016-02-28T08:45:37.801Z,1008.35
2016-02-28T08:46:37.756Z,1008.33
2016-02-28T08:47:37.729Z,1008.38
2016-02-28T08:48:37.732Z,1008.41
2016-02-28T08:49:37.687Z,1008.43
2016-02-28T08:50:37.659Z,1008.44
2016-02-28T08:51:37.630Z,1008.41
2016-02-28T08:52:37.602Z,1008.41
2016-02-28T08:53:37.572Z,1008.42
2016-02-28T08:54:37.544Z,1008.43
2016-02-28T08:55:37.516Z,1008.41
2016-02-28T08:56:37.503Z,1008.44
2016-02-28T08:57:37.475Z,1008.48
2016-02-28T08:58:37.446Z,1008.52
2016-02-28T08:59:37.417Z,1008.5
2016-02-28T09:00:37.388Z,1008.49
2016-02-28T09:01:37.378Z,1008.52
2016-02-28T09:02:37.348Z,1008.49
2016-02-28T09:03:37.321Z,1008.51
2016-02-28T09:04:37.292Z,1008.49
2016-02-28T09:05:37.284Z,1008.51
2016-02-28T09:06:37.240Z,1008.52
2016-02-28T09:07:37.227Z,1008.49
2016-02-28T09:08:37.198Z,1008.5
2016-02-28T09:09:37.169Z,1008.43
2016-02-28T09:10:37.141Z,1008.47
2016-02-28T09:11:37.113Z,1008.48
2016-02-28T09:12:37.084Z,1008.45
2016-02-28T09:13:37.071Z,1008.46
2016-02-28T09:14:37.042Z,1008.47
2016-02-28T09:15:37.030Z,1008.48
2016-02-28T09:16:36.985Z,1008.48
2016-02-28T09:17:36.957Z,1008.49
2016-02-28T09:18:36.944Z,1008.54
2016-02-28T09:19:36.916Z,1008.46
2016-02-28T09:20:36.887Z,1008.46
2016-02-28T09:21:36.858Z,1008.43
2016-02-28T09:22:36.846Z,1008.42
2016-02-28T09:23:36.816Z,1008.42
2016-02-28T09:24:36.788Z,1008.41
2016-02-28T09:25:36.759Z,1008.42
2016-02-28T09:26:36.732Z,1008.43
2016-02-28T09:27:36.718Z,1008.45
2016-02-28T09:28:36.690Z,1008.34
2016-02-28T09:29:36.677Z,1008.41
2016-02-28T09:30:36.632Z,1008.4
2016-02-28T09:31:36.604Z,1008.36
2016-02-28T09:32:36.575Z,1008.38
2016-02-28T09:33:36.563Z,1008.39
2016-02-28T09:34:36.534Z,1008.4
2016-02-28T09:35:36.518Z,1008.36
2016-02-28T09:36:39.630Z,1008.36
2016-02-28T09:37:36.445Z,1008.39
2016-02-28T09:38:36.525Z,1008.36
2016-02-28T09:39:36.380Z,1008.36
2016-02-28T09:40:36.366Z,1008.34
2016-02-28T09:41:36.338Z,1008.33
2016-02-28T09:42:36.310Z,1008.3
2016-02-28T09:43:36.296Z,1008.34
2016-02-28T09:44:36.268Z,1008.36
2016-02-28T09:45:36.240Z,1008.39
2016-02-28T09:46:36.210Z,1008.38
2016-02-28T09:47:36.198Z,1008.39
2016-02-28T09:48:36.164Z,1008.38
2016-02-28T09:49:36.135Z,1008.37
2016-02-28T09:50:36.137Z,1008.38
2016-02-28T09:51:36.078Z,1008.38
2016-02-28T09:52:36.050Z,1008.38
2016-02-28T09:53:36.036Z,1008.34
2016-02-28T09:54:36.008Z,1008.34
2016-02-28T09:55:35.979Z,1008.32
2016-02-28T09:56:35.950Z,1008.34
2016-02-28T09:57:35.953Z,1008.31
2016-02-28T09:58:35.908Z,1008.28
2016-02-28T09:59:35.881Z,1008.32
2016-02-28T10:00:35.852Z,1008.34
2016-02-28T10:01:35.824Z,1008.34
2016-02-28T10:02:35.832Z,1008.36
2016-02-28T10:03:35.772Z,1008.37
2016-02-28T10:04:35.759Z,1008.38
2016-02-28T10:05:35.746Z,1008.41
2016-02-28T10:06:35.707Z,1008.41
2016-02-28T10:07:35.680Z,1008.41
2016-02-28T10:08:35.651Z,1008.38
2016-02-28T10:09:35.623Z,1008.4
2016-02-28T10:10:35.610Z,1008.42
2016-02-28T10:11:35.926Z,1008.46
2016-02-28T10:12:35.553Z,1008.44
2016-02-28T10:13:35.525Z,1008.47
2016-02-28T10:14:35.496Z,1008.55
2016-02-28T10:15:35.483Z,1008.52
2016-02-28T10:16:35.455Z,1008.55
2016-02-28T10:17:35.425Z,1008.5
2016-02-28T10:18:35.397Z,1008.45
2016-02-28T10:19:35.384Z,1008.5
2016-02-28T10:20:35.356Z,1008.42
2016-02-28T10:21:35.328Z,1008.44
2016-02-28T10:22:35.299Z,1008.44
2016-02-28T10:23:35.286Z,1008.41
2016-02-28T10:24:35.304Z,1008.4
2016-02-28T10:25:35.229Z,1008.41
2016-02-28T10:26:35.199Z,1008.43
2016-02-28T10:27:35.187Z,1008.45
2016-02-28T10:28:35.158Z,1008.48
2016-02-28T10:29:35.130Z,1008.47
2016-02-28T10:30:35.102Z,1008.49
2016-02-28T10:31:35.088Z,1008.49
2016-02-28T10:32:35.060Z,1008.48
2016-02-28T10:33:35.032Z,1008.49
2016-02-28T10:34:35.003Z,1008.47
2016-02-28T10:35:34.974Z,1008.46
2016-02-28T10:36:34.961Z,1008.44
2016-02-28T10:37:34.932Z,1008.48
2016-02-28T10:38:34.904Z,1008.38
2016-02-28T10:39:34.892Z,1008.45
2016-02-28T10:40:34.863Z,1008.51
2016-02-28T10:41:34.835Z,1008.42
2016-02-28T10:42:34.806Z,1008.46
2016-02-28T10:43:34.793Z,1008.48
2016-02-28T10:44:34.764Z,1008.45
2016-02-28T10:45:34.736Z,1008.5
2016-02-28T10:46:34.706Z,1008.46
2016-02-28T10:47:34.678Z,1008.49
2016-02-28T10:48:34.666Z,1008.47
2016-02-28T10:49:34.637Z,1008.55
2016-02-28T10:50:34.609Z,1008.47
2016-02-28T10:51:34.580Z,1008.51
2016-02-28T10:52:34.567Z,1008.5
2016-02-28T10:53:34.538Z,1008.5
2016-02-28T10:54:34.525Z,1008.54
2016-02-28T10:55:34.480Z,1008.53
2016-02-28T10:56:34.469Z,1008.54
2016-02-28T10:57:34.440Z,1008.58
2016-02-28T10:58:34.411Z,1008.61
2016-02-28T10:59:34.413Z,1008.56
2016-02-28T11:00:34.369Z,1008.61
2016-02-28T11:01:34.341Z,1008.58
2016-02-28T11:02:34.313Z,1008.52
2016-02-28T11:03:34.300Z,1008.55
2016-02-28T11:04:34.490Z,1008.6
2016-02-28T11:05:34.243Z,1008.55
2016-02-28T11:06:34.214Z,1008.57
2016-02-28T11:07:34.201Z,1008.54
2016-02-28T11:08:34.173Z,1008.56
2016-02-28T11:09:34.144Z,1008.59
2016-02-28T11:10:34.115Z,1008.58
2016-02-28T11:11:34.103Z,1008.54
2016-02-28T11:12:34.074Z,1008.5
2016-02-28T11:13:34.045Z,1008.57
2016-02-28T11:14:34.017Z,1008.52
2016-02-28T11:15:34.003Z,1008.53
2016-02-28T11:16:33.975Z,1008.54
2016-02-28T11:17:33.947Z,1008.58
2016-02-28T11:18:33.918Z,1008.59
2016-02-28T11:19:33.905Z,1008.59
2016-02-28T11:20:33.877Z,1008.67
2016-02-28T11:21:33.863Z,1008.63
2016-02-28T11:22:33.836Z,1008.68
2016-02-28T11:23:33.807Z,1008.69
2016-02-28T11:24:33.778Z,1008.72
2016-02-28T11:25:33.766Z,1008.74
2016-02-28T11:26:33.736Z,1008.77
2016-02-28T11:27:33.708Z,1008.72
2016-02-28T11:28:33.694Z,1008.7
2016-02-28T11:29:33.667Z,1008.67
2016-02-28T11:30:33.638Z,1008.69
2016-02-28T11:31:33.610Z,1008.69
2016-02-28T11:32:33.580Z,1008.73
2016-02-28T11:33:33.568Z,1008.67
2016-02-28T11:34:33.540Z,1008.71
2016-02-28T11:35:33.510Z,1008.65
2016-02-28T11:36:33.482Z,1008.68
2016-02-28T11:37:33.469Z,1008.67
2016-02-28T11:38:33.441Z,1008.66
2016-02-28T11:39:33.428Z,1008.7
2016-02-28T11:40:33.399Z,1008.66
2016-02-28T11:41:33.370Z,1008.73
2016-02-28T11:42:33.342Z,1008.72
2016-02-28T11:43:33.329Z,1008.7
2016-02-28T11:44:33.301Z,1008.75
2016-02-28T11:45:33.273Z,1008.73
2016-02-28T11:46:33.259Z,1008.76
2016-02-28T11:47:33.230Z,1008.79
2016-02-28T11:48:33.248Z,1008.79
2016-02-28T11:49:33.173Z,1008.83
2016-02-28T11:50:33.161Z,1008.82
2016-02-28T11:51:33.131Z,1008.81
2016-02-28T11:52:33.103Z,1008.8
2016-02-28T11:53:33.091Z,1008.78
2016-02-28T11:54:33.062Z,1008.74
2016-02-28T11:55:33.049Z,1008.7
2016-02-28T11:56:33.005Z,1008.72
2016-02-28T11:57:32.992Z,1008.74
2016-02-28T11:58:32.963Z,1008.73
2016-02-28T11:59:32.950Z,1008.74
2016-02-28T12:00:32.922Z,1008.7
2016-02-28T12:01:32.908Z,1008.73
2016-02-28T12:02:32.896Z,1008.71
2016-02-28T12:03:32.868Z,1008.75
2016-02-28T12:04:32.838Z,1008.73
2016-02-28T12:05:32.826Z,1008.7
2016-02-28T12:06:32.782Z,1008.67
2016-02-28T12:07:32.769Z,1008.66
2016-02-28T12:08:32.771Z,1008.65